Ripley, Maine
Current Conditions -  °F | °C
As of 4:53 AM on Monday 22 Dec 2014 (Local Time) from KBGR Reporting Station
Overcast Overcast  
Wind Chill: 26°   Ceiling: 5500
Heat Index: 26°   Visibility: 10mi
Dew Point: 24°   Wind: 0mph
Humidity: 92%   Direction: NA
Pressure: 30.4"   Gusts: NA
Location:  45.0196°N, 69.2829°W
Report Text: KBGR 220953Z 00000KT 10SM OVC055 M03/M04 A3040 RMK AO2 SLP297 T10331044
Loading
Personal Weather Stations






























Interactive Weather Map New forecast layout! Learn more

10-Day Weather Forecast

Advertisements
Track Severe Weather on mobile